createdAt,value
2023-04-26T00:00:29.117Z,337.00
2023-04-26T00:01:29.102Z,337.00
2023-04-26T00:02:29.146Z,336.00
2023-04-26T00:03:29.277Z,334.00
2023-04-26T00:04:29.321Z,334.00
2023-04-26T00:05:29.174Z,337.00
2023-04-26T00:06:29.068Z,337.00
2023-04-26T00:07:29.139Z,336.00
2023-04-26T00:08:29.197Z,336.00
2023-04-26T00:09:29.232Z,338.00
2023-04-26T00:10:29.270Z,341.00
2023-04-26T00:11:29.306Z,342.00
2023-04-26T00:12:29.352Z,342.00
2023-04-26T00:13:29.390Z,344.00
2023-04-26T00:14:29.419Z,343.00
2023-04-26T00:15:29.466Z,340.00
2023-04-26T00:16:29.552Z,339.00
2023-04-26T00:17:29.505Z,337.00
2023-04-26T00:18:29.488Z,335.00
2023-04-26T00:19:29.468Z,334.00
2023-04-26T00:20:29.461Z,333.00
2023-04-26T00:21:29.459Z,333.00
2023-04-26T00:22:29.427Z,331.00
2023-04-26T00:23:29.421Z,332.00
2023-04-26T00:24:29.395Z,333.00
2023-04-26T00:25:29.372Z,333.00
2023-04-26T00:26:29.363Z,333.00
2023-04-26T00:27:29.335Z,335.00
2023-04-26T00:28:29.334Z,337.00
2023-04-26T00:29:29.324Z,338.00
2023-04-26T00:30:29.365Z,336.00
2023-04-26T00:31:29.369Z,336.00
2023-04-26T00:32:29.381Z,336.00
2023-04-26T00:33:29.354Z,335.00
2023-04-26T00:34:29.343Z,334.00
2023-04-26T00:35:29.325Z,334.00
2023-04-26T00:36:29.310Z,333.00
2023-04-26T00:37:29.314Z,333.00
2023-04-26T00:38:29.291Z,335.00
2023-04-26T00:39:29.268Z,336.00
2023-04-26T00:40:29.284Z,337.00
2023-04-26T00:41:29.255Z,338.00
2023-04-26T00:42:29.228Z,337.00
2023-04-26T00:43:29.244Z,337.00
2023-04-26T00:44:29.241Z,338.00
2023-04-26T00:45:29.238Z,338.00
2023-04-26T00:46:29.241Z,336.00
2023-04-26T00:47:29.205Z,335.00
2023-04-26T00:48:29.195Z,334.00
2023-04-26T00:49:29.196Z,336.00
2023-04-26T00:50:29.142Z,338.00
2023-04-26T00:51:29.679Z,340.00
2023-04-26T00:52:29.192Z,341.00
2023-04-26T00:53:29.103Z,341.00
2023-04-26T00:54:29.104Z,342.00
2023-04-26T00:55:29.109Z,340.00
2023-04-26T00:56:29.078Z,338.00
2023-04-26T00:57:29.048Z,339.00
2023-04-26T00:58:29.049Z,339.00
2023-04-26T00:59:29.059Z,339.00
2023-04-26T01:00:29.011Z,338.00
2023-04-26T01:01:29.058Z,334.00
2023-04-26T01:02:29.050Z,333.00
2023-04-26T01:03:29.105Z,333.00
2023-04-26T01:04:29.035Z,333.00
2023-04-26T01:05:28.960Z,335.00
2023-04-26T01:06:28.927Z,332.00
2023-04-26T01:07:28.905Z,330.00
2023-04-26T01:08:28.903Z,332.00
2023-04-26T01:09:28.904Z,333.00
2023-04-26T01:10:28.933Z,333.00
2023-04-26T01:11:28.938Z,332.00
2023-04-26T01:12:28.972Z,332.00
2023-04-26T01:13:29.030Z,330.00
2023-04-26T01:14:29.116Z,331.00
2023-04-26T01:15:29.107Z,330.00
2023-04-26T01:16:29.144Z,329.00
2023-04-26T01:17:29.250Z,330.00
2023-04-26T01:18:29.221Z,331.00
2023-04-26T01:19:29.237Z,331.00
2023-04-26T01:20:29.301Z,333.00
2023-04-26T01:21:29.322Z,333.00
2023-04-26T01:22:29.348Z,334.00
2023-04-26T01:23:29.367Z,333.00
2023-04-26T01:24:29.396Z,334.00
2023-04-26T01:25:29.431Z,337.00
2023-04-26T01:26:29.403Z,337.00
2023-04-26T01:27:29.397Z,339.00
2023-04-26T01:28:29.398Z,339.00
2023-04-26T01:29:29.412Z,336.00
2023-04-26T01:30:29.439Z,335.00
2023-04-26T01:31:29.478Z,333.00
2023-04-26T01:32:29.448Z,331.00
2023-04-26T01:33:29.402Z,331.00
2023-04-26T01:34:29.434Z,329.00
2023-04-26T01:35:29.379Z,330.00
2023-04-26T01:36:29.379Z,332.00
2023-04-26T01:37:29.348Z,333.00
2023-04-26T01:38:29.350Z,336.00
2023-04-26T01:39:29.358Z,338.00
2023-04-26T01:40:29.353Z,338.00
2023-04-26T01:41:29.317Z,337.00
2023-04-26T01:42:29.322Z,337.00
2023-04-26T01:43:29.322Z,336.00
2023-04-26T01:44:29.293Z,335.00
2023-04-26T01:45:29.292Z,336.00
2023-04-26T01:46:29.334Z,337.00
2023-04-26T01:47:29.286Z,337.00
2023-04-26T01:48:29.273Z,334.00
2023-04-26T01:49:29.266Z,335.00
2023-04-26T01:50:29.258Z,336.00
2023-04-26T01:51:29.289Z,334.00
2023-04-26T01:52:29.253Z,334.00
2023-04-26T01:53:29.243Z,333.00
2023-04-26T01:54:29.254Z,333.00
2023-04-26T01:55:29.242Z,332.00
2023-04-26T01:56:29.211Z,331.00
2023-04-26T01:57:29.207Z,328.00
2023-04-26T01:58:29.196Z,326.00
2023-04-26T01:59:29.233Z,327.00
2023-04-26T02:00:29.176Z,326.00
2023-04-26T02:01:29.187Z,329.00
2023-04-26T02:02:29.244Z,325.00
2023-04-26T02:03:29.184Z,325.00
2023-04-26T02:04:29.157Z,326.00
2023-04-26T02:05:29.300Z,326.00
2023-04-26T02:06:29.140Z,326.00
2023-04-26T02:07:29.154Z,329.00
2023-04-26T02:08:29.092Z,331.00
2023-04-26T02:09:29.091Z,331.00
2023-04-26T02:10:29.115Z,330.00
2023-04-26T02:11:29.064Z,331.00
2023-04-26T02:12:29.069Z,331.00
2023-04-26T02:13:29.035Z,331.00
2023-04-26T02:14:29.054Z,330.00
2023-04-26T02:15:29.014Z,328.00
2023-04-26T02:16:29.122Z,327.00
2023-04-26T02:17:29.009Z,329.00
2023-04-26T02:18:28.991Z,330.00
2023-04-26T02:19:28.979Z,329.00
2023-04-26T02:20:28.976Z,329.00
2023-04-26T02:21:28.986Z,329.00
2023-04-26T02:22:28.986Z,329.00
2023-04-26T02:23:28.983Z,330.00
2023-04-26T02:24:28.983Z,329.00
2023-04-26T02:25:28.985Z,327.00
2023-04-26T02:26:28.970Z,328.00
2023-04-26T02:27:28.952Z,330.00
2023-04-26T02:28:28.963Z,328.00
2023-04-26T02:29:43.105Z,327.00
2023-04-26T02:30:29.952Z,326.00
2023-04-26T02:31:29.026Z,323.00
2023-04-26T02:32:28.971Z,323.00
2023-04-26T02:33:28.936Z,324.00
2023-04-26T02:34:28.946Z,325.00
2023-04-26T02:35:28.932Z,328.00
2023-04-26T02:36:28.875Z,328.00
2023-04-26T02:37:28.858Z,327.00
2023-04-26T02:38:29.724Z,325.00
2023-04-26T02:39:28.913Z,328.00
2023-04-26T02:40:28.876Z,329.00
2023-04-26T02:41:28.932Z,329.00
2023-04-26T02:42:28.937Z,329.00
2023-04-26T02:43:28.856Z,330.00
2023-04-26T02:44:28.863Z,330.00
2023-04-26T02:45:28.969Z,331.00
2023-04-26T02:46:28.932Z,330.00
2023-04-26T02:47:28.744Z,328.00
2023-04-26T02:48:28.768Z,329.00
2023-04-26T02:49:28.766Z,326.00
2023-04-26T02:50:28.765Z,327.00
2023-04-26T02:51:28.688Z,328.00
2023-04-26T02:52:28.787Z,327.00
2023-04-26T02:53:28.704Z,329.00
2023-04-26T02:54:28.701Z,330.00
2023-04-26T02:55:28.692Z,331.00
2023-04-26T02:56:28.697Z,330.00
2023-04-26T02:57:28.696Z,330.00
2023-04-26T02:58:28.695Z,329.00
2023-04-26T02:59:28.671Z,328.00
2023-04-26T03:00:28.644Z,329.00
2023-04-26T03:01:28.698Z,329.00
2023-04-26T03:02:28.806Z,330.00
2023-04-26T03:03:28.996Z,329.00
2023-04-26T03:04:28.730Z,330.00
2023-04-26T03:05:28.607Z,330.00
2023-04-26T03:06:29.231Z,330.00
2023-04-26T03:07:29.233Z,329.00
2023-04-26T03:08:28.738Z,331.00
2023-04-26T03:09:28.789Z,329.00
2023-04-26T03:10:28.708Z,328.00
2023-04-26T03:11:28.624Z,329.00
2023-04-26T03:12:28.728Z,332.00
2023-04-26T03:13:28.590Z,332.00
2023-04-26T03:14:28.647Z,330.00
2023-04-26T03:15:28.711Z,327.00
2023-04-26T03:16:28.620Z,328.00
2023-04-26T03:17:28.500Z,327.00
2023-04-26T03:18:28.569Z,326.00
2023-04-26T03:19:28.467Z,327.00
2023-04-26T03:20:28.472Z,328.00
2023-04-26T03:21:28.431Z,329.00
2023-04-26T03:22:28.420Z,327.00
2023-04-26T03:23:28.437Z,325.00
2023-04-26T03:24:28.436Z,325.00
2023-04-26T03:25:28.403Z,325.00
2023-04-26T03:26:28.358Z,326.00
2023-04-26T03:27:28.356Z,326.00
2023-04-26T03:28:28.307Z,325.00
2023-04-26T03:29:28.313Z,325.00
2023-04-26T03:30:28.315Z,325.00
2023-04-26T03:31:28.419Z,324.00
2023-04-26T03:32:28.293Z,323.00
2023-04-26T03:33:28.253Z,322.00
2023-04-26T03:34:28.253Z,319.00
2023-04-26T03:35:28.214Z,322.00
2023-04-26T03:36:28.222Z,322.00
2023-04-26T03:37:28.221Z,325.00
2023-04-26T03:38:28.200Z,323.00
2023-04-26T03:39:28.174Z,324.00
2023-04-26T03:40:28.182Z,325.00
2023-04-26T03:41:28.157Z,327.00
2023-04-26T03:42:28.145Z,330.00
2023-04-26T03:43:28.126Z,328.00
2023-04-26T03:44:30.532Z,328.00
2023-04-26T03:45:28.118Z,326.00
2023-04-26T03:46:28.184Z,324.00
2023-04-26T03:47:28.172Z,323.00
2023-04-26T03:48:28.106Z,324.00
2023-04-26T03:49:28.073Z,324.00
2023-04-26T03:50:28.082Z,325.00
2023-04-26T03:51:28.071Z,325.00
2023-04-26T03:52:28.058Z,324.00
2023-04-26T03:53:28.050Z,325.00
2023-04-26T03:54:28.047Z,326.00
2023-04-26T03:55:28.165Z,326.00
2023-04-26T03:56:28.014Z,325.00
2023-04-26T03:57:27.995Z,322.00
2023-04-26T03:58:27.999Z,322.00
2023-04-26T03:59:28.003Z,323.00
2023-04-26T04:00:27.973Z,324.00
2023-04-26T04:01:27.978Z,323.00
2023-04-26T04:02:28.077Z,323.00
2023-04-26T04:03:28.204Z,323.00
2023-04-26T04:04:28.183Z,323.00
2023-04-26T04:05:27.958Z,323.00
2023-04-26T04:06:27.933Z,322.00
2023-04-26T04:07:27.922Z,322.00
2023-04-26T04:08:27.922Z,320.00
2023-04-26T04:09:27.900Z,322.00
2023-04-26T04:10:27.924Z,321.00
2023-04-26T04:11:27.891Z,319.00
2023-04-26T04:12:27.873Z,317.00
2023-04-26T04:13:27.884Z,317.00
2023-04-26T04:14:27.871Z,318.00
2023-04-26T04:15:27.838Z,318.00
2023-04-26T04:16:27.936Z,318.00
2023-04-26T04:17:27.840Z,319.00
2023-04-26T04:18:27.820Z,322.00
2023-04-26T04:19:27.826Z,321.00
2023-04-26T04:20:27.795Z,320.00
2023-04-26T04:21:27.761Z,321.00
2023-04-26T04:22:27.764Z,325.00
2023-04-26T04:23:27.757Z,322.00
2023-04-26T04:24:27.772Z,327.00
2023-04-26T04:25:27.737Z,329.00
2023-04-26T04:26:27.734Z,330.00
2023-04-26T04:27:27.799Z,328.00
2023-04-26T04:28:27.712Z,328.00
2023-04-26T04:29:27.707Z,325.00
2023-04-26T04:30:27.699Z,324.00
2023-04-26T04:31:27.765Z,324.00
2023-04-26T04:32:27.731Z,322.00
2023-04-26T04:33:28.257Z,322.00
2023-04-26T04:34:27.751Z,321.00
2023-04-26T04:35:27.650Z,321.00
2023-04-26T04:36:27.698Z,323.00
2023-04-26T04:37:28.265Z,325.00
2023-04-26T04:38:27.620Z,325.00
2023-04-26T04:39:27.619Z,326.00
2023-04-26T04:40:27.614Z,325.00
2023-04-26T04:41:27.593Z,323.00
2023-04-26T04:42:27.569Z,321.00
2023-04-26T04:43:27.564Z,322.00
2023-04-26T04:44:27.573Z,322.00
2023-04-26T04:45:27.527Z,320.00
2023-04-26T04:46:27.572Z,321.00
2023-04-26T04:47:27.530Z,321.00
2023-04-26T04:48:27.474Z,321.00
2023-04-26T04:49:27.488Z,325.00
2023-04-26T04:50:27.463Z,324.00
2023-04-26T04:51:27.446Z,324.00
2023-04-26T04:52:27.430Z,323.00
2023-04-26T04:53:27.417Z,322.00
2023-04-26T04:54:27.440Z,323.00
2023-04-26T04:55:27.407Z,326.00
2023-04-26T04:56:27.380Z,325.00
2023-04-26T04:57:27.375Z,327.00
2023-04-26T04:58:27.352Z,325.00
2023-04-26T04:59:28.109Z,323.00
2023-04-26T05:00:27.350Z,320.00
2023-04-26T05:01:27.348Z,319.00
2023-04-26T05:02:27.528Z,322.00
2023-04-26T05:03:27.515Z,321.00
2023-04-26T05:04:27.524Z,320.00
2023-04-26T05:05:27.286Z,318.00
2023-04-26T05:06:27.264Z,320.00
2023-04-26T05:07:29.022Z,317.00
2023-04-26T05:08:27.252Z,317.00
2023-04-26T05:09:27.239Z,317.00
2023-04-26T05:10:27.214Z,317.00
2023-04-26T05:11:27.199Z,317.00
2023-04-26T05:12:27.238Z,319.00
2023-04-26T05:13:27.172Z,322.00
2023-04-26T05:14:27.181Z,321.00
2023-04-26T05:15:27.227Z,322.00
2023-04-26T05:16:27.241Z,321.00
2023-04-26T05:17:27.190Z,320.00
2023-04-26T05:18:27.141Z,323.00
2023-04-26T05:19:27.131Z,323.00
2023-04-26T05:20:27.120Z,323.00
2023-04-26T05:21:27.100Z,326.00
2023-04-26T05:22:27.082Z,328.00
2023-04-26T05:23:27.074Z,329.00
2023-04-26T05:24:27.051Z,332.00
2023-04-26T05:25:27.028Z,330.00
2023-04-26T05:26:26.999Z,329.00
2023-04-26T05:27:27.004Z,328.00
2023-04-26T05:28:27.801Z,330.00
2023-04-26T05:29:26.973Z,330.00
2023-04-26T05:30:26.994Z,330.00
2023-04-26T05:31:27.003Z,331.00
2023-04-26T05:32:26.981Z,331.00
2023-04-26T05:33:26.933Z,327.00
2023-04-26T05:34:26.896Z,329.00
2023-04-26T05:35:26.895Z,376.00
2023-04-26T05:36:29.134Z,373.00
2023-04-26T05:37:26.848Z,395.00
2023-04-26T05:38:26.821Z,425.00
2023-04-26T05:39:26.808Z,438.00
2023-04-26T05:40:26.784Z,452.00
2023-04-26T05:41:26.754Z,470.00
2023-04-26T05:42:26.793Z,478.00
2023-04-26T05:43:26.708Z,493.00
2023-04-26T05:44:26.685Z,499.00
2023-04-26T05:45:26.701Z,516.00
2023-04-26T05:46:29.369Z,583.00
2023-04-26T05:47:26.707Z,582.00
2023-04-26T05:48:26.589Z,602.00
2023-04-26T05:49:26.587Z,685.00
2023-04-26T05:50:26.557Z,710.00
2023-04-26T05:51:26.603Z,718.00
2023-04-26T05:52:26.516Z,744.00
2023-04-26T05:53:26.690Z,762.00
2023-04-26T05:54:26.537Z,828.00
2023-04-26T05:55:26.488Z,837.00
2023-04-26T05:56:26.443Z,845.00
2023-04-26T05:57:26.450Z,847.00
2023-04-26T05:58:26.394Z,848.00
2023-04-26T05:59:26.396Z,864.00
2023-04-26T06:00:26.817Z,909.00
2023-04-26T06:01:26.372Z,976.00
2023-04-26T06:02:26.441Z,963.00
2023-04-26T06:03:26.450Z,957.00
2023-04-26T06:04:26.465Z,959.00
2023-04-26T06:05:26.551Z,974.00
2023-04-26T06:06:26.205Z,993.00
2023-04-26T06:07:26.198Z,1022.00
2023-04-26T06:08:26.166Z,1028.00
2023-04-26T06:09:26.161Z,1045.00
2023-04-26T06:10:26.102Z,1058.00
2023-04-26T06:11:26.185Z,1070.00
2023-04-26T06:12:26.138Z,1090.00
2023-04-26T06:13:26.068Z,1093.00
2023-04-26T06:14:30.568Z,1104.00
2023-04-26T06:15:27.005Z,1170.00
2023-04-26T06:16:26.031Z,1172.00
2023-04-26T06:17:26.039Z,1174.00
2023-04-26T06:18:25.952Z,1177.00
2023-04-26T06:19:26.018Z,1189.00
2023-04-26T06:20:25.909Z,1204.00
2023-04-26T06:21:25.859Z,1221.00
2023-04-26T06:22:25.892Z,1273.00
2023-04-26T06:23:25.867Z,1275.00
2023-04-26T06:24:26.027Z,1280.00
2023-04-26T06:25:25.882Z,1301.00
2023-04-26T06:26:25.727Z,1321.00
2023-04-26T06:27:25.714Z,1329.00
2023-04-26T06:28:25.661Z,1324.00
2023-04-26T06:29:25.709Z,1322.00
2023-04-26T06:30:25.621Z,1332.00
2023-04-26T06:31:25.625Z,1338.00
2023-04-26T06:32:25.603Z,1359.00
2023-04-26T06:33:25.532Z,1373.00
2023-04-26T06:34:25.512Z,1380.00
2023-04-26T06:35:25.628Z,1397.00
2023-04-26T06:36:25.502Z,1411.00
2023-04-26T06:37:25.431Z,1422.00
2023-04-26T06:38:25.413Z,1416.00
2023-04-26T06:39:25.492Z,1435.00
2023-04-26T06:40:25.483Z,1537.00
2023-04-26T06:41:25.469Z,1485.00
2023-04-26T06:42:25.485Z,1479.00
2023-04-26T06:43:25.589Z,1455.00
2023-04-26T06:44:25.524Z,1312.00
2023-04-26T06:45:28.432Z,1334.00
2023-04-26T06:46:25.987Z,1323.00
2023-04-26T06:47:25.294Z,1333.00
2023-04-26T06:48:25.247Z,1335.00
2023-04-26T06:49:25.400Z,1349.00
2023-04-26T06:50:25.125Z,1355.00
2023-04-26T06:51:25.085Z,1358.00
2023-04-26T06:52:25.064Z,1363.00
2023-04-26T06:53:25.014Z,1368.00
2023-04-26T06:54:24.980Z,1381.00
2023-04-26T06:55:24.973Z,1371.00
2023-04-26T06:56:24.891Z,1345.00
2023-04-26T06:57:24.894Z,1335.00
2023-04-26T06:58:24.964Z,1332.00
2023-04-26T06:59:24.838Z,1322.00
2023-04-26T07:00:24.782Z,1314.00
2023-04-26T07:01:25.330Z,1308.00
2023-04-26T07:02:24.979Z,1302.00
2023-04-26T07:03:24.945Z,1298.00
2023-04-26T07:04:24.832Z,1285.00
2023-04-26T07:05:24.627Z,1275.00
2023-04-26T07:06:24.601Z,1268.00
2023-04-26T07:07:25.074Z,1262.00
2023-04-26T07:08:24.527Z,1268.00
2023-04-26T07:09:24.534Z,1265.00
2023-04-26T07:10:24.468Z,1248.00
2023-04-26T07:11:25.924Z,1244.00
2023-04-26T07:12:24.394Z,1237.00
2023-04-26T07:13:24.370Z,1233.00
2023-04-26T07:14:24.336Z,1231.00
2023-04-26T07:15:24.342Z,1262.00
2023-04-26T07:16:24.297Z,1292.00
2023-04-26T07:17:24.312Z,1275.00
2023-04-26T07:18:24.238Z,1261.00
2023-04-26T07:19:24.425Z,1250.00
2023-04-26T07:20:24.282Z,1248.00
2023-04-26T07:21:24.326Z,1261.00
2023-04-26T07:22:24.332Z,1258.00
2023-04-26T07:23:24.369Z,1253.00
2023-04-26T07:24:24.413Z,1262.00
2023-04-26T07:25:24.402Z,1271.00
2023-04-26T07:26:24.427Z,1265.00
2023-04-26T07:27:24.458Z,1287.00
2023-04-26T07:28:24.456Z,1298.00
2023-04-26T07:29:24.477Z,1307.00
2023-04-26T07:30:24.545Z,1320.00
2023-04-26T07:31:24.512Z,1322.00
2023-04-26T07:32:24.605Z,1323.00
2023-04-26T07:33:24.534Z,1329.00
2023-04-26T07:34:24.406Z,1384.00
2023-04-26T07:35:24.380Z,1377.00
2023-04-26T07:36:25.151Z,1362.00
2023-04-26T07:37:24.302Z,1248.00
2023-04-26T07:38:24.289Z,1188.00
2023-04-26T07:39:24.343Z,983.00
2023-04-26T07:40:24.236Z,762.00
2023-04-26T07:41:24.570Z,766.00
2023-04-26T07:42:24.231Z,783.00
2023-04-26T07:43:24.121Z,796.00
2023-04-26T07:44:24.145Z,758.00
2023-04-26T07:45:24.108Z,696.00
2023-04-26T07:46:24.100Z,697.00
2023-04-26T07:47:24.023Z,700.00
2023-04-26T07:48:23.980Z,703.00
2023-04-26T07:49:23.997Z,704.00
2023-04-26T07:50:23.921Z,694.00
2023-04-26T07:51:23.928Z,674.00
2023-04-26T07:52:23.920Z,671.00
2023-04-26T07:53:23.831Z,671.00
2023-04-26T07:54:26.341Z,656.00
2023-04-26T07:55:26.437Z,639.00
2023-04-26T07:56:24.026Z,632.00
2023-04-26T07:57:24.063Z,630.00
2023-04-26T07:58:24.096Z,627.00
2023-04-26T07:59:24.141Z,621.00
2023-04-26T08:00:24.939Z,627.00
2023-04-26T08:01:24.212Z,629.00
2023-04-26T08:02:33.206Z,628.00
2023-04-26T08:03:25.416Z,625.00
2023-04-26T08:04:24.594Z,602.00
2023-04-26T08:05:24.380Z,595.00
2023-04-26T08:06:24.375Z,595.00
2023-04-26T08:07:24.259Z,597.00
2023-04-26T08:08:24.375Z,603.00
2023-04-26T08:09:24.067Z,601.00
2023-04-26T08:10:24.126Z,598.00
2023-04-26T08:11:24.050Z,599.00
2023-04-26T08:12:24.090Z,600.00
2023-04-26T08:13:24.844Z,600.00
2023-04-26T08:14:24.153Z,613.00
2023-04-26T08:15:24.235Z,615.00
2023-04-26T08:16:24.293Z,614.00
2023-04-26T08:17:24.268Z,606.00
2023-04-26T08:18:24.223Z,600.00
2023-04-26T08:19:24.202Z,597.00
2023-04-26T08:20:24.329Z,586.00
2023-04-26T08:21:24.166Z,564.00
2023-04-26T08:22:24.133Z,541.00
2023-04-26T08:23:24.115Z,508.00
2023-04-26T08:24:24.078Z,504.00
2023-04-26T08:25:24.090Z,490.00
2023-04-26T08:26:24.061Z,477.00
2023-04-26T08:27:24.037Z,470.00
2023-04-26T08:28:23.987Z,469.00
2023-04-26T08:29:23.961Z,471.00
2023-04-26T08:30:23.969Z,489.00
2023-04-26T08:31:23.941Z,591.00
2023-04-26T08:32:23.945Z,592.00
2023-04-26T08:33:23.889Z,583.00
2023-04-26T08:34:23.879Z,536.00
2023-04-26T08:35:23.851Z,546.00
2023-04-26T08:36:23.838Z,539.00
2023-04-26T08:37:23.827Z,548.00
2023-04-26T08:38:23.858Z,543.00
2023-04-26T08:39:23.890Z,534.00
2023-04-26T08:40:23.927Z,506.00
2023-04-26T08:41:24.194Z,505.00
2023-04-26T08:42:24.076Z,495.00
2023-04-26T08:43:24.008Z,487.00
2023-04-26T08:44:24.053Z,480.00
2023-04-26T08:45:24.068Z,480.00
2023-04-26T08:46:24.118Z,478.00
2023-04-26T08:47:24.067Z,480.00
2023-04-26T08:48:24.109Z,483.00
2023-04-26T08:49:24.860Z,488.00
2023-04-26T08:50:24.178Z,491.00
2023-04-26T08:51:24.064Z,493.00
2023-04-26T08:52:24.153Z,502.00
2023-04-26T08:53:24.116Z,507.00
2023-04-26T08:54:24.189Z,513.00
2023-04-26T08:55:24.158Z,505.00
2023-04-26T08:56:24.151Z,452.00
2023-04-26T08:57:24.256Z,439.00
2023-04-26T08:58:24.137Z,429.00
2023-04-26T08:59:24.126Z,420.00
2023-04-26T09:00:24.099Z,418.00
2023-04-26T09:01:24.097Z,481.00
2023-04-26T09:02:24.268Z,502.00
2023-04-26T09:03:24.146Z,503.00
2023-04-26T09:04:24.710Z,504.00
2023-04-26T09:05:24.086Z,504.00
2023-04-26T09:06:23.980Z,504.00
2023-04-26T09:07:23.994Z,509.00
2023-04-26T09:08:23.936Z,515.00
2023-04-26T09:09:23.904Z,518.00
2023-04-26T09:10:24.089Z,522.00
2023-04-26T09:11:23.851Z,529.00
2023-04-26T09:12:23.841Z,531.00
2023-04-26T09:13:23.845Z,534.00
2023-04-26T09:14:23.879Z,536.00
2023-04-26T09:15:23.765Z,537.00
2023-04-26T09:16:23.808Z,538.00
2023-04-26T09:17:23.740Z,536.00
2023-04-26T09:18:23.694Z,540.00
2023-04-26T09:19:23.664Z,541.00
2023-04-26T09:20:23.652Z,543.00
2023-04-26T09:21:23.597Z,547.00
2023-04-26T09:22:23.585Z,544.00
2023-04-26T09:23:23.560Z,543.00
2023-04-26T09:24:23.542Z,544.00
2023-04-26T09:25:24.475Z,543.00
2023-04-26T09:26:23.556Z,541.00
2023-04-26T09:27:23.561Z,540.00
2023-04-26T09:28:23.643Z,538.00
2023-04-26T09:29:23.631Z,537.00
2023-04-26T09:30:23.791Z,531.00
2023-04-26T09:31:23.865Z,531.00
2023-04-26T09:32:23.750Z,530.00
2023-04-26T09:33:23.840Z,531.00
2023-04-26T09:34:23.863Z,530.00
2023-04-26T09:35:23.886Z,529.00
2023-04-26T09:36:23.948Z,527.00
2023-04-26T09:37:23.963Z,529.00
2023-04-26T09:38:24.025Z,530.00
2023-04-26T09:39:24.101Z,526.00
2023-04-26T09:40:24.139Z,523.00
2023-04-26T09:41:24.136Z,527.00
2023-04-26T09:42:24.172Z,588.00
2023-04-26T09:43:24.895Z,535.00
2023-04-26T09:44:24.191Z,555.00
2023-04-26T09:45:24.189Z,574.00
2023-04-26T09:46:24.261Z,656.00
2023-04-26T09:47:24.213Z,656.00
2023-04-26T09:48:24.217Z,665.00
2023-04-26T09:49:24.150Z,723.00
2023-04-26T09:50:24.127Z,814.00
2023-04-26T09:51:24.150Z,826.00
2023-04-26T09:52:24.191Z,814.00
2023-04-26T09:53:24.225Z,823.00
2023-04-26T09:54:24.300Z,844.00
2023-04-26T09:55:33.999Z,860.00
2023-04-26T09:56:25.261Z,870.00
2023-04-26T09:57:24.236Z,874.00
2023-04-26T09:58:24.221Z,880.00
2023-04-26T09:59:24.203Z,892.00
2023-04-26T10:00:24.319Z,906.00
2023-04-26T10:01:24.273Z,922.00
2023-04-26T10:02:25.171Z,929.00
2023-04-26T10:03:24.996Z,946.00
2023-04-26T10:04:24.107Z,960.00
2023-04-26T10:05:24.090Z,970.00
2023-04-26T10:06:24.006Z,978.00
2023-04-26T10:07:24.008Z,982.00
2023-04-26T10:08:24.048Z,983.00
2023-04-26T10:09:24.085Z,1040.00
2023-04-26T10:10:23.913Z,1047.00
2023-04-26T10:11:23.901Z,1035.00
2023-04-26T10:12:23.884Z,1037.00
2023-04-26T10:13:23.853Z,1048.00
2023-04-26T10:14:23.778Z,1067.00
2023-04-26T10:15:23.788Z,1063.00
2023-04-26T10:16:23.903Z,1067.00
2023-04-26T10:17:23.792Z,1068.00
2023-04-26T10:18:23.736Z,1070.00
2023-04-26T10:19:23.799Z,1076.00
2023-04-26T10:20:23.821Z,1113.00
2023-04-26T10:21:23.934Z,1098.00
2023-04-26T10:22:23.906Z,1089.00
2023-04-26T10:23:23.634Z,1090.00
2023-04-26T10:24:23.592Z,1096.00
2023-04-26T10:25:23.640Z,1096.00
2023-04-26T10:26:24.420Z,1106.00
2023-04-26T10:27:23.693Z,1115.00
2023-04-26T10:28:23.706Z,1118.00
2023-04-26T10:29:23.829Z,1115.00
2023-04-26T10:30:24.441Z,1118.00
2023-04-26T10:31:24.960Z,1121.00
2023-04-26T10:32:24.407Z,1125.00
2023-04-26T10:33:24.071Z,1134.00
2023-04-26T10:34:23.703Z,1138.00
2023-04-26T10:35:23.626Z,1155.00
2023-04-26T10:36:24.038Z,1160.00
2023-04-26T10:37:23.563Z,969.00
2023-04-26T10:38:23.592Z,868.00
2023-04-26T10:39:23.594Z,815.00
2023-04-26T10:40:23.635Z,739.00
2023-04-26T10:41:23.703Z,681.00
2023-04-26T10:42:24.516Z,670.00
2023-04-26T10:43:24.351Z,684.00
2023-04-26T10:44:23.530Z,719.00
2023-04-26T10:45:23.496Z,726.00
2023-04-26T10:46:23.546Z,733.00
2023-04-26T10:47:23.463Z,733.00
2023-04-26T10:48:23.404Z,737.00
2023-04-26T10:49:26.293Z,743.00
2023-04-26T10:50:23.427Z,743.00
2023-04-26T10:51:23.329Z,747.00
2023-04-26T10:52:23.367Z,752.00
2023-04-26T10:53:23.243Z,753.00
2023-04-26T10:54:23.913Z,753.00
2023-04-26T10:55:24.981Z,751.00
2023-04-26T10:56:23.150Z,742.00
2023-04-26T10:57:23.134Z,684.00
2023-04-26T10:58:23.084Z,711.00
2023-04-26T10:59:39.922Z,720.00
2023-04-26T11:00:24.058Z,724.00
2023-04-26T11:01:23.094Z,672.00
2023-04-26T11:02:23.034Z,655.00
2023-04-26T11:03:23.117Z,663.00
2023-04-26T11:04:23.080Z,672.00
2023-04-26T11:05:25.305Z,684.00
2023-04-26T11:06:22.960Z,693.00
2023-04-26T11:07:22.984Z,709.00
2023-04-26T11:08:23.007Z,727.00
2023-04-26T11:09:23.020Z,738.00
2023-04-26T11:10:23.052Z,746.00
2023-04-26T11:11:23.067Z,771.00
2023-04-26T11:12:23.057Z,784.00
2023-04-26T11:13:23.053Z,792.00
2023-04-26T11:14:23.071Z,798.00
2023-04-26T11:15:23.141Z,814.00
2023-04-26T11:16:23.105Z,830.00
2023-04-26T11:17:23.176Z,847.00
2023-04-26T11:18:23.066Z,857.00
2023-04-26T11:19:23.079Z,861.00
2023-04-26T11:20:23.001Z,872.00
2023-04-26T11:21:22.952Z,883.00
2023-04-26T11:22:22.949Z,896.00
2023-04-26T11:23:22.919Z,905.00
2023-04-26T11:24:22.853Z,966.00
2023-04-26T11:25:22.827Z,1013.00
2023-04-26T11:26:22.887Z,1022.00
2023-04-26T11:27:22.936Z,964.00
2023-04-26T11:28:22.815Z,959.00
2023-04-26T11:29:22.706Z,953.00
2023-04-26T11:30:22.703Z,950.00
2023-04-26T11:31:22.746Z,945.00
2023-04-26T11:32:23.441Z,946.00
2023-04-26T11:33:22.590Z,942.00
2023-04-26T11:34:22.561Z,933.00
2023-04-26T11:35:22.564Z,927.00
2023-04-26T11:36:22.538Z,903.00
2023-04-26T11:37:22.479Z,887.00
2023-04-26T11:38:22.466Z,881.00
2023-04-26T11:39:22.433Z,878.00
2023-04-26T11:40:22.431Z,873.00
2023-04-26T11:41:22.405Z,858.00
2023-04-26T11:42:22.387Z,833.00
2023-04-26T11:43:22.371Z,828.00
2023-04-26T11:44:22.339Z,824.00
2023-04-26T11:45:22.327Z,820.00
2023-04-26T11:46:22.289Z,817.00
2023-04-26T11:47:22.243Z,818.00
2023-04-26T11:48:22.331Z,816.00
2023-04-26T11:49:22.181Z,809.00
2023-04-26T11:50:22.228Z,803.00
2023-04-26T11:51:22.287Z,798.00
2023-04-26T11:52:22.092Z,796.00
2023-04-26T11:53:22.068Z,792.00
2023-04-26T11:54:22.134Z,786.00
2023-04-26T11:55:22.050Z,782.00
2023-04-26T11:56:22.127Z,784.00
2023-04-26T11:57:22.957Z,776.00
2023-04-26T11:58:22.081Z,775.00
2023-04-26T11:59:21.910Z,773.00
2023-04-26T12:00:22.089Z,769.00
2023-04-26T12:01:21.879Z,764.00
2023-04-26T12:02:21.957Z,764.00
2023-04-26T12:03:22.052Z,763.00
2023-04-26T12:04:21.966Z,757.00
2023-04-26T12:05:21.849Z,755.00
2023-04-26T12:06:21.801Z,751.00
2023-04-26T12:07:21.757Z,748.00
2023-04-26T12:08:21.723Z,744.00
2023-04-26T12:09:21.761Z,744.00
2023-04-26T12:10:21.765Z,741.00
2023-04-26T12:11:21.684Z,733.00
2023-04-26T12:12:21.660Z,729.00
2023-04-26T12:13:21.626Z,720.00
2023-04-26T12:14:21.561Z,719.00
2023-04-26T12:15:21.546Z,716.00
2023-04-26T12:16:26.880Z,711.00
2023-04-26T12:17:22.577Z,707.00
2023-04-26T12:18:21.660Z,705.00
2023-04-26T12:19:21.443Z,701.00
2023-04-26T12:20:21.366Z,700.00
2023-04-26T12:21:21.353Z,698.00
2023-04-26T12:22:21.342Z,696.00
2023-04-26T12:23:21.509Z,694.00
2023-04-26T12:24:21.261Z,689.00